»·PEaware :: N800DW KBOI-KIDA

N800DW :: KBOI-KIDA

FLIGHT INFORMATION

Flight Status: Arrived
Operator: Privately registered:
United States
More flights under this callsign
Pilot: Scott L. (17677)
Aircraft: Unknown
(EPIC)
More flights by this aircraft type
Origin: KBOI Boise Air Terminal/Gowen
United States
Destination: KIDA Idaho Falls Regl
United States
More flights between these airports :: More routes between these airports
Route: +BOI3 NATZZ
File this flight plan on PilotEdge
Remarks:
Altitude:
(Current/Filed)
24,000ft
Speed:
(Current/Filed)
250kts
Departed: 24-Feb-18 11:17 AM
Arrived: 24-Feb-18 12:12 PM
Distance/Time
Traveled:
181nm/0:55
Distance/Time
To Go:
Arrived

Flight Plot

Page will automatically refresh every two minutes.

Flight plan parsing failed; only flown route is shown


Map Options




Map Legend


Flown Route
Filed Route
Departure Airport
Arrival Airport
Navaid (VOR, NDB)
Fix

Horizontal Profiles

Position Reports

Time Latitude Longitude Heading Altitude Ground
Speed
24-Feb-18 11:16 43.561973 -116.205645 190 2843ft 0kts
24-Feb-18 11:17 43.561973 -116.205645 190 2843ft 0kts
24-Feb-18 11:18 43.561692 -116.205661 170 2842ft 0kts
24-Feb-18 11:19 43.561692 -116.205661 170 2842ft 0kts
24-Feb-18 11:20 43.561692 -116.205661 170 2842ft 0kts
24-Feb-18 11:21 43.561692 -116.205661 170 2842ft 0kts
24-Feb-18 11:22 43.561395 -116.207596 298 2842ft 22kts
24-Feb-18 11:23 43.565530 -116.219577 293 2842ft 36kts
24-Feb-18 11:24 43.570366 -116.233683 292 2842ft 43kts
24-Feb-18 11:25 43.570652 -116.236047 201 2842ft 0kts
24-Feb-18 11:26 43.570652 -116.236047 201 2842ft 0kts
24-Feb-18 11:27 43.570652 -116.236047 201 2842ft 0kts
24-Feb-18 11:28 43.569765 -116.235398 115 2842ft 37kts
24-Feb-18 11:29 43.555779 -116.182898 96 4530ft 209kts
24-Feb-18 11:30 43.555861 -116.093348 93 6545ft 255kts
24-Feb-18 11:31 43.557829 -115.993539 92 8508ft 276kts
24-Feb-18 11:32 43.560246 -115.885706 90 10497ft 290kts
24-Feb-18 11:33 43.562708 -115.774665 88 12483ft 295kts
24-Feb-18 11:34 43.565160 -115.662432 87 14480ft 294kts
24-Feb-18 11:35 43.567482 -115.549484 87 15655ft 317kts
24-Feb-18 11:36 43.569921 -115.423777 87 15656ft 341kts
24-Feb-18 11:37 43.572003 -115.294235 90 15642ft 347kts
24-Feb-18 11:38 43.571548 -115.161734 90 15633ft 348kts
24-Feb-18 11:39 43.570837 -115.035235 91 17041ft 310kts
24-Feb-18 11:40 43.561056 -114.926072 123 18988ft 278kts
24-Feb-18 11:41 43.554953 -114.832815 59 20991ft 266kts
24-Feb-18 11:42 43.582963 -114.736193 70 22684ft 279kts
24-Feb-18 11:43 43.605662 -114.634079 71 23611ft 306kts
24-Feb-18 11:44 43.629907 -114.519763 72 23610ft 334kts
24-Feb-18 11:45 43.654972 -114.400275 72 23610ft 343kts
24-Feb-18 11:46 43.680441 -114.278116 73 23604ft 346kts
24-Feb-18 11:47 43.706763 -114.151097 73 23605ft 347kts
24-Feb-18 11:48 43.732982 -114.023760 73 23606ft 347kts
24-Feb-18 11:49 43.759106 -113.896109 73 23606ft 347kts
24-Feb-18 11:50 43.785009 -113.768734 73 23607ft 348kts
24-Feb-18 11:51 43.810944 -113.640383 73 23471ft 350kts
24-Feb-18 11:52 43.837017 -113.510458 73 22273ft 361kts
24-Feb-18 11:53 43.863969 -113.375254 73 20328ft 374kts
24-Feb-18 11:54 43.890796 -113.239799 74 18386ft 375kts
24-Feb-18 11:55 43.916489 -113.109036 75 16458ft 334kts
24-Feb-18 11:56 43.939673 -112.990505 75 15022ft 300kts
24-Feb-18 11:57 43.959632 -112.888013 76 15017ft 262kts
24-Feb-18 11:58 43.977764 -112.794323 76 15019ft 247kts
24-Feb-18 11:59 43.995277 -112.703222 76 15024ft 253kts
24-Feb-18 12:00 44.013981 -112.605537 76 15022ft 272kts
24-Feb-18 12:01 44.033548 -112.502860 76 15017ft 279kts
24-Feb-18 12:02 44.055007 -112.389524 76 12654ft 335kts
24-Feb-18 12:03 44.076480 -112.275513 77 9717ft 298kts
24-Feb-18 12:04 44.050067 -112.190288 143 8081ft 211kts
24-Feb-18 12:05 44.007468 -112.147317 152 7393ft 193kts
24-Feb-18 12:06 43.962816 -112.109375 154 7193ft 194kts
24-Feb-18 12:07 43.914461 -112.070457 153 7193ft 209kts
24-Feb-18 12:08 43.863757 -112.030184 153 7195ft 222kts
24-Feb-18 12:09 43.806138 -111.984143 153 7196ft 253kts
24-Feb-18 12:10 43.750506 -111.940313 155 6796ft 203kts
24-Feb-18 12:11 43.714605 -111.911872 155 6763ft 163kts
24-Feb-18 12:12 43.677910 -111.893207 215 6678ft 133kts
24-Feb-18 12:13 43.650536 -111.924617 217 6680ft 124kts
24-Feb-18 12:14 43.624208 -111.952811 217 6695ft 118kts
24-Feb-18 12:15 43.601115 -111.977415 217 6683ft 135kts
24-Feb-18 12:16 43.568648 -112.012982 217 5915ft 116kts
24-Feb-18 12:17 43.542251 -112.042096 217 5311ft 123kts
24-Feb-18 12:18 43.517867 -112.068657 215 4733ft 94kts
24-Feb-18 12:19 43.509327 -112.076239 75 4731ft 15kts
24-Feb-18 12:20 43.511701 -112.072238 301 4731ft 0kts
24-Feb-18 12:21 43.511700 -112.072237 301 4731ft 0kts
24-Feb-18 12:22 43.511700 -112.072237 301 4731ft 0kts
24-Feb-18 12:23 43.511700 -112.072237 301 4731ft 0kts
24-Feb-18 12:24 43.511700 -112.072237 301 4731ft 0kts
24-Feb-18 12:25 43.511700 -112.072237 301 4731ft 0kts
24-Feb-18 12:26 43.511700 -112.072237 301 4731ft 0kts
24-Feb-18 12:27 43.511700 -112.072237 301 4731ft 0kts
24-Feb-18 12:28 43.511700 -112.072237 301 4731ft 0kts
24-Feb-18 12:29 43.511700 -112.072237 301 4731ft 0kts
24-Feb-18 12:30 43.511700 -112.072237 301 4731ft 0kts
24-Feb-18 12:31 43.511700 -112.072237 301 4731ft 0kts
24-Feb-18 12:32 43.511700 -112.072237 301 4731ft 0kts
24-Feb-18 12:33 43.511700 -112.072237 301 4731ft 0kts
24-Feb-18 12:34 43.511700 -112.072237 301 4731ft 0kts

Navigation Log

Ident Type
Flight plan parsing failed, navigation log unavailable